Weather reports worldwide

Advertisment
Fuengirola, Spain (8480): temperature & dewpoint: 18.06.2018 16:00:00 - 24.06.2018 16:00:00 (CEST)Fuengirola, Spain (8480): wind speed & gusts: 18.06.2018 16:00:00 - 24.06.2018 16:00:00 (CEST)Fuengirola, Spain (8480): wind direction: 18.06.2018 16:00:00 - 24.06.2018 16:00:00 (CEST)Fuengirola, Spain (8480): precipitation: 18.06.2018 16:00:00 - 24.06.2018 16:00:00 (CEST)
Date & Time tt [°C] td [°C] ff [km/h] ff [kn] fx [km/h] fx [kn] dd rr [mm]
24.06.2018 16:00:00 24,8 20,5 9 5 23 12 SW 0,0
24.06.2018 15:00:00 23,9 20,4 15 8 22 12 SSW 0,0
24.06.2018 14:00:00 23,4 20,3 12 6 20 11 SW -
24.06.2018 13:00:00 23,2 20,2 10 5 16 9 SSW 0,0
24.06.2018 12:00:00 23,1 20,1 9 5 16 9 SW 0,0
24.06.2018 11:00:00 23,3 19,9 9 5 14 8 SSW 0,0
24.06.2018 10:00:00 23,5 19,4 5 3 13 7 SW 0,0
24.06.2018 09:00:00 22,4 18,6 3 1 9 5 W 0,0
24.06.2018 08:00:00 21,8 18,4 3 2 10 5 WNW -
24.06.2018 07:00:00 22,1 18,7 1 1 6 3 SW 0,0
24.06.2018 06:00:00 22,3 18,3 4 2 11 6 WNW 0,0
24.06.2018 05:00:00 22,5 18,5 6 4 13 7 WNW 0,0
24.06.2018 04:00:00 23,0 19,2 5 3 10 5 W 0,0
24.06.2018 03:00:00 23,1 18,6 5 3 11 6 W 0,0
24.06.2018 02:00:00 23,3 18,2 6 3 10 6 W -
24.06.2018 01:00:00 23,8 18,7 2 1 11 6 W 0,0
24.06.2018 00:00:00 23,5 19,0 4 2 10 5 W 0,0
23.06.2018 23:00:00 22,9 19,1 0 0 8 5 NNW 0,0
23.06.2018 22:00:00 23,3 20,6 7 4 14 7 SSW 0,0
23.06.2018 21:00:00 23,7 20,6 9 5 13 7 SSW 0,0
23.06.2018 20:00:00 24,8 20,5 3 1 10 5 SSW -
23.06.2018 19:00:00 25,8 19,9 5 3 9 5 SE 0,0
23.06.2018 18:00:00 26,0 19,9 8 4 14 7 ESE 0,0
23.06.2018 17:00:00 25,3 20,1 6 4 11 6 SE 0,0
23.06.2018 16:00:00 24,3 20,6 3 2 9 5 SSW 0,0
23.06.2018 15:00:00 23,8 20,5 6 3 11 6 SSW 0,0
23.06.2018 14:00:00 23,6 20,7 8 4 12 6 SSW -
23.06.2018 13:00:00 23,5 20,0 9 5 11 6 SSW 0,0
23.06.2018 12:00:00 23,5 19,0 2 1 6 3 SSW 0,0
23.06.2018 11:00:00 23,7 19,0 3 2 7 4 SE 0,0
23.06.2018 10:00:00 23,6 18,5 4 2 8 4 E 0,0
23.06.2018 09:00:00 23,3 18,0 4 2 10 5 ENE 0,0
23.06.2018 08:00:00 22,2 16,0 5 3 9 5 NW -
23.06.2018 07:00:00 21,7 15,5 3 2 6 4 NW 0,0
23.06.2018 06:00:00 21,8 15,4 3 2 10 5 WNW 0,0
23.06.2018 05:00:00 22,4 15,5 6 3 11 6 WNW 0,0
23.06.2018 04:00:00 22,6 15,7 3 1 11 6 NW 0,0
23.06.2018 03:00:00 22,9 15,7 4 2 12 6 WNW 0,0
23.06.2018 02:00:00 23,5 15,8 3 2 8 4 NW -
23.06.2018 01:00:00 23,4 16,2 0 0 9 5 NE 0,0
23.06.2018 00:00:00 23,6 16,4 6 3 8 5 NE 0,0
22.06.2018 23:00:00 22,9 17,8 3 2 7 4 NE 0,0
22.06.2018 22:00:00 23,5 19,2 2 1 5 3 ENE 0,0
22.06.2018 21:00:00 24,3 20,6 2 1 5 3 SSE 0,0
22.06.2018 20:00:00 24,5 21,0 3 1 8 4 SSW -
22.06.2018 19:00:00 25,4 19,5 5 3 8 5 S 0,0
22.06.2018 18:00:00 25,8 18,7 3 2 5 3 S 0,0
22.06.2018 17:00:00 25,0 20,0 3 2 5 3 S 0,0
22.06.2018 16:00:00 24,2 19,1 3 2 5 3 S 0,0
22.06.2018 15:00:00 23,5 19,0 3 1 6 4 SE 0,0
22.06.2018 14:00:00 22,4 19,6 6 3 11 6 SSW -
22.06.2018 13:00:00 22,1 19,3 5 3 15 8 SW 0,0
22.06.2018 12:00:00 21,3 19,9 9 5 13 7 SSW 0,0
22.06.2018 11:00:00 22,4 19,8 3 2 6 3 SSE 0,0
22.06.2018 10:00:00 22,0 17,6 2 1 9 5 S 0,0
22.06.2018 09:00:00 23,0 15,6 4 2 12 6 WNW 0,0
22.06.2018 08:00:00 21,9 15,0 5 3 16 8 NW -
22.06.2018 07:00:00 21,9 15,3 8 4 14 7 WNW 0,0
22.06.2018 06:00:00 21,8 15,6 8 5 14 7 WNW 0,0
22.06.2018 05:00:00 22,0 15,6 3 2 9 5 WNW 0,0
22.06.2018 04:00:00 22,1 15,9 1 1 9 5 NW 0,0
22.06.2018 03:00:00 22,4 16,2 5 3 10 5 WNW 0,0
22.06.2018 02:00:00 22,1 17,5 2 1 7 4 N -
22.06.2018 01:00:00 23,0 17,0 5 3 10 5 NW 0,0
22.06.2018 00:00:00 21,7 18,1 1 1 6 4 SSW 0,0
21.06.2018 23:00:00 21,6 19,2 4 2 7 4 SW 0,0
21.06.2018 22:00:00 22,0 19,2 1 1 5 3 SE 0,0
21.06.2018 21:00:00 22,0 19,7 3 2 13 7 S 0,0
21.06.2018 20:00:00 22,4 19,9 8 4 15 8 SSW -
21.06.2018 19:00:00 22,8 19,4 8 4 14 8 SSW 0,0
21.06.2018 18:00:00 22,5 20,0 10 5 19 10 SSW 0,0
21.06.2018 17:00:00 22,6 19,9 14 7 23 13 SSW 0,0
21.06.2018 16:00:00 22,4 19,6 16 9 24 13 SSW 0,0
21.06.2018 15:00:00 22,6 19,8 14 7 22 12 SSW 0,0
21.06.2018 14:00:00 22,0 20,1 11 6 17 9 SSW -
21.06.2018 13:00:00 21,8 20,3 7 4 11 6 SSW 0,0
21.06.2018 12:00:00 21,2 19,7 7 4 14 7 SSW 0,0
21.06.2018 11:00:00 21,4 19,0 10 5 14 8 SSW 0,0
21.06.2018 10:00:00 22,1 17,9 4 2 9 5 SW 0,0
21.06.2018 09:00:00 22,5 17,0 2 1 9 5 W 0,0
21.06.2018 08:00:00 21,8 17,2 3 1 5 3 WSW -
21.06.2018 07:00:00 22,0 16,7 3 2 10 6 NW 0,0
21.06.2018 06:00:00 22,1 16,8 6 3 13 7 W 0,0
21.06.2018 05:00:00 22,2 17,3 2 1 9 5 WNW 0,0
21.06.2018 04:00:00 22,4 17,3 5 3 14 8 WNW 0,0
21.06.2018 03:00:00 22,6 17,7 3 2 10 6 NNW 0,0
21.06.2018 02:00:00 22,6 17,9 5 3 11 6 WNW -
21.06.2018 01:00:00 22,6 18,4 3 1 9 5 ENE 0,0
21.06.2018 00:00:00 22,2 18,8 2 1 6 4 ENE 0,0
20.06.2018 23:00:00 22,5 18,9 1 1 5 3 SSE 0,0
20.06.2018 22:00:00 22,9 18,9 1 1 4 2 S 0,0
20.06.2018 21:00:00 23,3 19,0 1 1 6 3 ESE 0,0
20.06.2018 20:00:00 23,9 19,0 6 3 11 6 ENE -
20.06.2018 19:00:00 24,4 19,2 6 4 11 6 ENE 0,0
20.06.2018 18:00:00 25,3 19,4 5 3 13 7 E 0,0
20.06.2018 17:00:00 25,3 19,4 7 4 13 7 E 0,0
20.06.2018 16:00:00 25,2 19,6 6 3 16 8 E 0,0
20.06.2018 15:00:00 24,2 19,3 6 3 11 6 E 0,0
20.06.2018 14:00:00 22,5 19,7 6 3 12 7 S -
20.06.2018 13:00:00 22,7 19,9 5 3 9 5 SSW 0,0
20.06.2018 12:00:00 23,0 18,5 4 2 10 5 S 0,0
20.06.2018 11:00:00 22,8 17,9 10 5 16 8 SSE 0,0
20.06.2018 10:00:00 22,6 17,1 3 2 9 5 ESE 0,0
20.06.2018 09:00:00 22,1 17,5 4 2 8 4 NE 0,0
20.06.2018 08:00:00 21,2 17,4 3 1 10 6 NNW -
20.06.2018 07:00:00 20,6 17,6 3 1 6 4 NW 0,0
20.06.2018 06:00:00 20,7 17,9 3 2 8 5 NW 0,0
20.06.2018 05:00:00 21,2 18,8 4 2 13 7 E 0,0
20.06.2018 04:00:00 21,3 18,7 3 2 10 5 E 0,0
20.06.2018 03:00:00 21,6 18,8 6 4 12 6 ENE 0,0
20.06.2018 02:00:00 21,6 18,8 5 3 10 5 NE -
20.06.2018 01:00:00 21,6 18,8 5 3 17 9 E 0,0
20.06.2018 00:00:00 21,8 18,6 10 6 18 10 E 0,0
19.06.2018 23:00:00 22,2 18,4 8 4 26 14 ENE 0,0
19.06.2018 22:00:00 22,3 18,1 7 4 14 8 ENE 0,0
19.06.2018 21:00:00 22,7 18,0 9 5 18 10 E 0,0
19.06.2018 20:00:00 23,5 18,4 12 6 20 11 ENE -
19.06.2018 19:00:00 24,1 18,5 12 6 20 11 E 0,0
19.06.2018 18:00:00 24,1 18,7 16 8 24 13 E 0,0
19.06.2018 17:00:00 25,1 18,8 7 4 19 10 ESE 0,0
19.06.2018 16:00:00 25,7 18,6 9 5 16 8 E 0,0
19.06.2018 15:00:00 25,6 18,0 7 4 18 10 E 0,0
19.06.2018 14:00:00 25,4 18,1 11 6 17 9 E -
19.06.2018 13:00:00 25,5 17,7 8 4 15 8 E 0,0
19.06.2018 12:00:00 25,2 17,4 9 5 16 9 E 0,0
19.06.2018 11:00:00 24,5 17,2 8 4 11 6 ENE 0,0
19.06.2018 10:00:00 23,4 16,7 5 3 8 4 ENE 0,0
19.06.2018 09:00:00 21,5 16,7 1 0 9 5 NE 0,0
19.06.2018 08:00:00 20,8 16,0 4 2 9 5 WNW -
19.06.2018 07:00:00 21,0 16,0 1 1 5 3 NW 0,0
19.06.2018 06:00:00 21,6 17,2 3 2 11 6 E 0,0
19.06.2018 05:00:00 21,8 17,2 7 4 15 8 E 0,0
19.06.2018 04:00:00 22,3 17,2 9 5 19 11 ENE 0,0
19.06.2018 03:00:00 22,1 17,0 11 6 21 11 ENE 0,0
19.06.2018 02:00:00 21,8 18,0 3 2 18 10 NE -
19.06.2018 01:00:00 21,9 17,7 13 7 19 10 E 0,0
19.06.2018 00:00:00 22,4 17,3 6 4 13 7 ENE 0,0
18.06.2018 23:00:00 22,9 16,7 3 1 5 3 ENE 0,0
18.06.2018 22:00:00 23,1 16,6 1 1 8 4 S 0,0
18.06.2018 21:00:00 23,8 17,3 3 2 8 4 ESE 0,0
18.06.2018 20:00:00 24,6 18,3 3 2 9 5 SE -
18.06.2018 19:00:00 24,6 18,8 7 4 10 5 SSE 0,0
18.06.2018 18:00:00 25,5 17,4 4 2 8 4 SSE 0,0
18.06.2018 17:00:00 26,3 16,3 5 3 9 5 SE 0,0
18.06.2018 16:00:00 26,3 16,3 5 3 14 8 ENE 0,0

tt = temperature
td = dewpoint
ff = wind speed
fx = gusts
dd = wind direction
rr = precipitation

Next stations